Time;durP1;ratioP1;P1;durP2;ratioP2;P2;SDS_P1;SDS_P2;PMS_P1;PMS_P2;Temp;Humidity;BMP_temperature;BMP_pressure;BME280_temperature;BME280_humidity;BME280_pressure;Samples;Min_cycle;Max_cycle;Signal;HPM_P1;HPM_P2
2022/09/29 00:01:02;;;;;;;22.30;14.27;;;7.40;99.90;;;;;;5060968;28;20166;-74
2022/09/29 00:03:28;;;;;;;22.87;13.47;;;7.40;99.90;;;;;;5061748;28;20035;-74
2022/09/29 00:05:55;;;;;;;22.93;15.10;;;7.30;99.90;;;;;;5058134;28;20029;-76
2022/09/29 00:08:25;;;;;;;22.10;15.50;;;7.20;99.90;;;;;;5058689;28;20639;-75
2022/09/29 00:10:50;;;;;;;23.33;14.83;;;7.20;99.90;;;;;;5057509;28;20040;-75
2022/09/29 00:13:17;;;;;;;23.10;14.53;;;7.10;99.90;;;;;;5059696;28;20025;-76
2022/09/29 00:15:43;;;;;;;22.70;15.43;;;7.00;99.90;;;;;;5057786;28;20058;-75
2022/09/29 00:18:11;;;;;;;25.20;16.53;;;6.90;99.90;;;;;;5095308;28;20025;-76
2022/09/29 00:20:37;;;;;;;23.03;16.57;;;6.80;99.90;;;;;;5073972;28;20025;-75
2022/09/29 00:23:03;;;;;;;23.57;15.70;;;6.70;99.90;;;;;;5059894;28;20029;-75
2022/09/29 00:25:29;;;;;;;27.23;16.10;;;6.70;99.90;;;;;;5060619;28;20090;-76
2022/09/29 00:27:54;;;;;;;23.27;15.30;;;6.70;99.90;;;;;;5077060;28;21762;-75
2022/09/29 00:30:20;;;;;;;28.97;16.53;;;6.60;99.90;;;;;;5060465;28;20033;-75
2022/09/29 00:32:48;;;;;;;28.63;16.63;;;6.60;99.90;;;;;;5057726;28;20135;-75
2022/09/29 00:35:16;;;;;;;29.17;17.93;;;6.50;99.90;;;;;;5058352;28;20057;-74
2022/09/29 00:37:47;;;;;;;29.87;17.40;;;6.40;99.90;;;;;;5058464;28;20110;-75
2022/09/29 00:40:12;;;;;;;27.63;16.50;;;6.40;99.90;;;;;;5090895;28;20441;-77
2022/09/29 00:42:40;;;;;;;27.60;16.93;;;6.30;99.90;;;;;;5059912;28;20043;-75
2022/09/29 00:45:17;;;;;;;30.67;17.83;;;6.20;99.90;;;;;;5059473;28;20055;-76
2022/09/29 00:47:46;;;;;;;30.27;16.10;;;6.20;99.90;;;;;;5059310;28;20029;-74
2022/09/29 00:50:23;;;;;;;30.23;17.00;;;6.20;99.90;;;;;;5058507;28;20029;-75
2022/09/29 00:53:00;;;;;;;30.10;16.67;;;6.00;99.90;;;;;;5056207;28;20025;-75
2022/09/29 00:55:35;;;;;;;35.63;17.50;;;6.00;99.90;;;;;;5057773;28;20104;-75
2022/09/29 00:58:04;;;;;;;30.27;16.43;;;6.00;99.90;;;;;;5057848;28;20130;-75
2022/09/29 01:00:30;;;;;;;24.53;15.70;;;5.90;99.90;;;;;;5056072;28;20017;-75
2022/09/29 01:03:03;;;;;;;27.53;15.67;;;5.90;99.90;;;;;;5055237;28;20021;-75
2022/09/29 01:05:33;;;;;;;29.20;16.43;;;5.70;99.90;;;;;;5057233;28;20021;-75
2022/09/29 01:08:10;;;;;;;31.57;16.97;;;5.70;99.90;;;;;;5058662;28;20678;-76
2022/09/29 01:10:38;;;;;;;32.47;17.03;;;5.60;99.90;;;;;;5063460;28;20033;-75
2022/09/29 01:13:04;;;;;;;33.57;18.97;;;5.60;99.90;;;;;;5058915;28;20120;-75
2022/09/29 01:15:30;;;;;;;31.20;18.20;;;5.60;99.90;;;;;;5053929;28;21723;-75
2022/09/29 01:17:56;;;;;;;37.63;20.20;;;5.50;99.90;;;;;;5055931;28;20028;-75
2022/09/29 01:20:23;;;;;;;33.37;17.70;;;5.60;99.90;;;;;;5058655;28;20070;-75
2022/09/29 01:23:15;;;;;;;30.53;17.03;;;5.60;99.90;;;;;;5066484;28;20024;-74
2022/09/29 01:26:12;;;;;;;26.07;15.90;;;5.60;99.90;;;;;;5060666;28;20072;-75
2022/09/29 01:29:17;;;;;;;22.40;15.87;;;5.70;99.90;;;;;;5057752;28;20043;-76
2022/09/29 01:31:50;;;;;;;24.77;15.70;;;5.70;99.90;;;;;;5058399;28;20054;-76
2022/09/29 01:34:39;;;;;;;24.05;14.88;;;5.60;99.90;;;;;;5055020;28;20040;-76
2022/09/29 01:37:20;;;;;;;27.13;16.60;;;5.50;99.90;;;;;;5057085;28;20068;-76
2022/09/29 01:40:01;;;;;;;33.87;17.03;;;5.40;99.90;;;;;;5056203;28;20017;-76
2022/09/29 01:42:35;;;;;;;31.00;15.50;;;5.40;99.90;;;;;;5055921;28;20025;-75
2022/09/29 01:45:11;;;;;;;34.40;17.27;;;5.40;99.90;;;;;;5070919;28;20021;-75
2022/09/29 01:47:46;;;;;;;32.37;16.60;;;5.40;99.90;;;;;;5057114;28;20029;-76
2022/09/29 01:50:17;;;;;;;28.97;16.63;;;5.40;99.90;;;;;;5058614;28;20025;-75
2022/09/29 01:52:49;;;;;;;35.03;18.03;;;5.40;99.90;;;;;;5090662;28;20024;-76
2022/09/29 01:55:21;;;;;;;35.03;15.95;;;5.30;99.90;;;;;;5055887;28;20071;-76
2022/09/29 01:57:50;;;;;;;;;;;5.20;99.90;;;;;;5057548;28;20349;-76
2022/09/29 02:00:18;;;;;;;31.33;14.47;;;5.10;99.90;;;;;;5060590;28;19947;-76
2022/09/29 02:02:54;;;;;;;31.57;16.30;;;5.10;99.90;;;;;;5057813;28;20330;-75
2022/09/29 02:05:26;;;;;;;35.43;16.23;;;5.10;99.90;;;;;;5055683;28;20449;-77
2022/09/29 02:08:01;;;;;;;28.85;16.05;;;5.10;99.90;;;;;;5057686;28;20071;-76
2022/09/29 02:10:33;;;;;;;34.63;17.43;;;5.00;99.90;;;;;;5056717;28;20089;-76
2022/09/29 02:13:02;;;;;;;28.38;15.88;;;5.00;99.90;;;;;;5057509;28;20063;-76
2022/09/29 02:15:35;;;;;;;23.33;14.97;;;5.00;99.90;;;;;;5058016;28;20607;-75
2022/09/29 02:18:09;;;;;;;29.77;15.97;;;5.00;99.90;;;;;;5058036;28;20033;-76
2022/09/29 02:20:35;;;;;;;26.30;15.37;;;4.90;99.90;;;;;;5055803;28;20101;-77
2022/09/29 02:23:01;;;;;;;30.00;16.33;;;5.00;99.90;;;;;;5053484;28;20082;-76
2022/09/29 02:25:33;;;;;;;41.27;18.53;;;4.90;99.90;;;;;;5055343;28;20128;-76
2022/09/29 02:27:59;;;;;;;49.10;20.42;;;4.90;99.90;;;;;;5073865;28;20033;-76
2022/09/29 02:30:25;;;;;;;26.13;16.03;;;4.90;99.90;;;;;;5056842;28;20032;-77
2022/09/29 02:32:50;;;;;;;28.17;14.77;;;4.90;99.90;;;;;;5088538;28;20028;-77
2022/09/29 02:35:16;;;;;;;27.27;15.20;;;4.80;99.90;;;;;;5056977;28;20411;-75
2022/09/29 02:38:00;;;;;;;23.60;14.07;;;4.90;99.90;;;;;;5054971;28;20032;-77
2022/09/29 02:40:41;;;;;;;27.03;14.77;;;4.80;99.90;;;;;;5071153;28;20021;-77
2022/09/29 02:43:32;;;;;;;21.90;14.07;;;4.70;99.90;;;;;;5091363;28;20066;-77
2022/09/29 02:46:06;;;;;;;25.90;14.63;;;4.60;99.90;;;;;;5060754;28;20024;-77
2022/09/29 02:48:47;;;;;;;29.27;16.17;;;4.50;99.90;;;;;;5077053;28;20063;-76
2022/09/29 02:51:19;;;;;;;27.53;15.57;;;4.50;99.90;;;;;;5073641;28;20059;-76
2022/09/29 02:54:03;;;;;;;30.38;16.13;;;4.50;99.90;;;;;;5068948;28;20028;-77
2022/09/29 02:57:03;;;;;;;37.97;18.47;;;4.50;99.90;;;;;;5079857;28;20040;-75
2022/09/29 03:00:04;;;;;;;32.90;17.20;;;4.50;99.90;;;;;;5061858;28;20052;-76
2022/09/29 03:02:30;;;;;;;29.00;16.37;;;4.40;99.90;;;;;;5076337;28;20028;-75
2022/09/29 03:04:56;;;;;;;30.67;16.67;;;4.40;99.90;;;;;;5059945;28;20036;-75
2022/09/29 03:07:21;;;;;;;39.37;18.07;;;4.40;99.90;;;;;;5061643;28;20029;-75
2022/09/29 03:09:47;;;;;;;30.57;17.30;;;4.50;99.90;;;;;;5062826;28;20211;-76
2022/09/29 03:12:13;;;;;;;41.03;18.17;;;4.50;99.90;;;;;;5061578;28;21669;-75
2022/09/29 03:14:40;;;;;;;28.63;17.97;;;4.50;99.90;;;;;;5062869;28;20032;-75
2022/09/29 03:17:08;;;;;;;37.53;16.77;;;4.50;99.90;;;;;;5062862;28;20047;-76
2022/09/29 03:19:34;;;;;;;33.03;17.00;;;4.40;99.90;;;;;;5092338;28;20021;-76
2022/09/29 03:21:59;;;;;;;26.10;14.20;;;4.40;99.90;;;;;;5060997;28;20486;-75
2022/09/29 03:24:25;;;;;;;31.03;15.90;;;4.40;99.90;;;;;;5061595;28;20498;-75
2022/09/29 03:26:51;;;;;;;26.67;14.70;;;4.40;99.90;;;;;;5060941;28;20449;-76
2022/09/29 03:29:17;;;;;;;28.60;15.80;;;4.40;99.90;;;;;;5063899;28;20109;-76
2022/09/29 03:31:42;;;;;;;29.60;15.70;;;4.40;99.90;;;;;;5062574;28;20838;-75
2022/09/29 03:34:08;;;;;;;25.63;15.33;;;4.30;99.90;;;;;;5066139;28;20021;-76
2022/09/29 03:36:33;;;;;;;31.60;15.77;;;4.30;99.90;;;;;;5064133;28;20044;-76
2022/09/29 03:38:59;;;;;;;38.93;17.33;;;4.30;99.90;;;;;;5059537;28;21708;-75
2022/09/29 03:41:25;;;;;;;35.43;16.90;;;4.30;99.90;;;;;;5058666;28;20036;-75
2022/09/29 03:43:52;;;;;;;33.93;16.07;;;4.30;99.90;;;;;;5063375;28;20798;-76
2022/09/29 03:46:18;;;;;;;38.00;17.40;;;4.30;99.90;;;;;;5058280;28;20021;-76
2022/09/29 03:48:44;;;;;;;38.07;18.57;;;4.20;99.90;;;;;;5057981;28;20112;-75
2022/09/29 03:51:09;;;;;;;37.17;17.87;;;4.20;99.90;;;;;;5060119;28;20029;-76
2022/09/29 03:53:35;;;;;;;36.67;17.27;;;4.20;99.90;;;;;;5058238;28;20036;-77
2022/09/29 03:56:01;;;;;;;41.23;19.23;;;4.30;99.90;;;;;;5059048;28;20028;-76
2022/09/29 03:58:29;;;;;;;41.03;20.13;;;4.30;99.90;;;;;;5062800;28;20040;-76
2022/09/29 04:00:55;;;;;;;46.00;20.77;;;4.30;99.90;;;;;;5063919;28;20028;-76
2022/09/29 04:03:21;;;;;;;45.60;21.67;;;4.20;99.90;;;;;;5062625;28;20048;-76
2022/09/29 04:05:47;;;;;;;45.20;20.97;;;4.20;99.90;;;;;;5070416;28;20082;-75
2022/09/29 04:08:14;;;;;;;39.90;19.23;;;4.20;99.90;;;;;;5069974;28;20141;-75
2022/09/29 04:10:40;;;;;;;40.40;20.77;;;4.40;99.90;;;;;;5083530;28;20090;-77
2022/09/29 04:13:06;;;;;;;37.73;18.43;;;4.30;99.90;;;;;;5062511;28;20040;-76
2022/09/29 04:15:32;;;;;;;43.00;18.83;;;4.20;99.90;;;;;;5056653;28;20079;-75
2022/09/29 04:17:58;;;;;;;34.93;17.07;;;4.20;99.90;;;;;;5060820;28;20064;-76
2022/09/29 04:20:24;;;;;;;35.70;18.10;;;4.20;99.90;;;;;;5057130;28;20511;-76
2022/09/29 04:22:50;;;;;;;35.83;18.70;;;4.20;99.90;;;;;;5057196;28;20055;-76
2022/09/29 04:25:18;;;;;;;35.73;17.23;;;4.20;99.90;;;;;;5059834;28;20469;-76
2022/09/29 04:27:44;;;;;;;34.93;17.87;;;4.10;99.90;;;;;;5058980;28;21794;-76
2022/09/29 04:30:10;;;;;;;38.33;19.13;;;4.10;99.90;;;;;;5060247;28;20028;-77
2022/09/29 04:32:36;;;;;;;34.83;17.50;;;4.10;99.90;;;;;;5062713;28;20421;-76
2022/09/29 04:35:02;;;;;;;31.43;16.37;;;4.10;99.90;;;;;;5055954;28;20043;-76
2022/09/29 04:37:27;;;;;;;44.60;19.53;;;4.00;99.90;;;;;;5061637;28;20024;-76
2022/09/29 04:39:53;;;;;;;47.87;20.43;;;4.00;99.90;;;;;;5060639;28;20950;-76
2022/09/29 04:42:19;;;;;;;45.73;20.27;;;4.00;99.90;;;;;;5059162;28;20029;-75
2022/09/29 04:44:46;;;;;;;53.00;21.13;;;4.00;99.90;;;;;;5060625;28;20051;-76
2022/09/29 04:47:11;;;;;;;44.37;19.33;;;4.10;99.90;;;;;;5059978;28;20036;-76
2022/09/29 04:49:39;;;;;;;43.23;19.60;;;4.10;99.90;;;;;;5060721;28;20028;-76
2022/09/29 04:52:05;;;;;;;52.30;20.27;;;4.10;99.90;;;;;;5059592;28;20024;-74
2022/09/29 04:54:34;;;;;;;51.17;19.83;;;4.10;99.90;;;;;;5094101;28;20044;-76
2022/09/29 04:57:00;;;;;;;49.00;21.07;;;4.00;99.90;;;;;;5061489;28;20142;-76
2022/09/29 04:59:26;;;;;;;48.63;22.03;;;4.00;99.90;;;;;;5062227;28;20021;-76
2022/09/29 05:01:52;;;;;;;43.97;20.50;;;4.00;99.90;;;;;;5061540;28;20079;-76
2022/09/29 05:04:18;;;;;;;49.13;21.00;;;4.00;99.90;;;;;;5059587;28;20028;-76
2022/09/29 05:06:44;;;;;;;57.77;23.40;;;4.00;99.90;;;;;;5062401;28;20024;-76
2022/09/29 05:09:10;;;;;;;55.13;22.37;;;4.00;99.90;;;;;;5059388;28;20112;-76
2022/09/29 05:11:35;;;;;;;51.97;22.37;;;4.00;99.90;;;;;;5061260;28;20132;-76
2022/09/29 05:14:03;;;;;;;55.13;21.63;;;4.00;99.90;;;;;;5059162;28;20494;-76
2022/09/29 05:16:29;;;;;;;44.40;20.70;;;4.00;99.90;;;;;;5056481;28;20449;-75
2022/09/29 05:18:57;;;;;;;43.53;20.43;;;4.10;99.90;;;;;;5057207;28;20040;-75
2022/09/29 05:21:23;;;;;;;52.90;22.00;;;4.10;99.90;;;;;;5057701;28;20107;-76
2022/09/29 05:23:49;;;;;;;59.83;23.40;;;4.10;99.90;;;;;;5057391;28;20036;-76
2022/09/29 05:26:17;;;;;;;66.30;23.37;;;4.00;99.90;;;;;;5059924;28;20028;-77
2022/09/29 05:28:44;;;;;;;60.27;23.93;;;4.10;99.90;;;;;;5057299;28;20448;-76
2022/09/29 05:31:10;;;;;;;63.43;24.53;;;4.20;99.90;;;;;;5058913;28;20037;-76
2022/09/29 05:33:37;;;;;;;75.20;27.17;;;4.10;99.90;;;;;;5061810;28;20491;-76
2022/09/29 05:36:07;;;;;;;99.93;30.30;;;4.20;99.90;;;;;;5059117;28;20037;-76
2022/09/29 05:38:34;;;;;;;122.77;33.50;;;4.20;99.90;;;;;;5062354;28;20047;-76
2022/09/29 05:41:03;;;;;;;161.70;36.70;;;4.40;99.90;;;;;;5056974;28;20400;-76
2022/09/29 05:43:29;;;;;;;169.73;38.10;;;4.50;99.90;;;;;;5063982;28;20036;-74
2022/09/29 05:46:00;;;;;;;149.07;38.80;;;4.60;99.90;;;;;;5060850;28;20417;-76
2022/09/29 05:48:28;;;;;;;164.27;40.07;;;4.70;99.90;;;;;;5059374;28;20037;-75
2022/09/29 05:50:53;;;;;;;156.00;40.53;;;4.80;99.90;;;;;;5057538;28;20124;-76
2022/09/29 05:53:19;;;;;;;201.77;43.47;;;4.90;99.90;;;;;;5058065;28;20425;-76
2022/09/29 05:55:45;;;;;;;233.87;47.13;;;5.10;99.90;;;;;;5058750;28;20029;-76
2022/09/29 05:58:13;;;;;;;229.77;47.60;;;5.20;99.90;;;;;;5056770;28;20033;-76
2022/09/29 06:00:39;;;;;;;208.07;46.80;;;5.40;99.90;;;;;;5058473;28;20047;-76
2022/09/29 06:03:06;;;;;;;231.03;48.90;;;5.50;99.90;;;;;;5060215;28;20025;-76
2022/09/29 06:05:32;;;;;;;256.70;51.73;;;5.60;99.90;;;;;;5070811;28;20032;-76
2022/09/29 06:08:02;;;;;;;197.90;48.60;;;5.70;99.90;;;;;;5092191;28;20041;-76
2022/09/29 06:10:28;;;;;;;220.47;47.73;;;5.80;99.90;;;;;;5058015;28;20334;-76
2022/09/29 06:12:54;;;;;;;217.83;47.43;;;6.00;99.90;;;;;;5059389;28;20040;-75
2022/09/29 06:15:19;;;;;;;176.10;43.47;;;6.10;99.90;;;;;;5057552;28;20037;-76
2022/09/29 06:17:45;;;;;;;231.57;48.13;;;6.20;99.90;;;;;;5057383;28;20079;-75
2022/09/29 06:20:11;;;;;;;177.93;43.77;;;6.30;99.90;;;;;;5059028;28;20537;-76
2022/09/29 06:22:36;;;;;;;161.33;39.87;;;6.30;99.90;;;;;;5063075;28;20028;-76
2022/09/29 06:25:02;;;;;;;167.93;40.07;;;6.30;99.90;;;;;;5062677;28;20100;-76
2022/09/29 06:27:30;;;;;;;178.13;41.80;;;6.40;99.90;;;;;;5060769;28;20497;-77
2022/09/29 06:29:56;;;;;;;210.20;44.40;;;6.50;99.90;;;;;;5059483;28;20033;-76
2022/09/29 06:32:24;;;;;;;190.83;44.43;;;6.60;99.90;;;;;;5062719;28;20123;-76
2022/09/29 06:37:33;;;;;;;204.43;45.73;;;6.70;99.90;;;;;;5060887;28;20102;-76
2022/09/29 06:40:00;;;;;;;186.60;42.90;;;6.90;99.90;;;;;;5077127;28;20021;-76
2022/09/29 06:42:25;;;;;;;220.27;48.47;;;7.00;99.90;;;;;;5061815;28;20119;-76
2022/09/29 06:44:52;;;;;;;194.63;46.27;;;7.10;99.90;;;;;;5065215;28;20653;-75
2022/09/29 06:47:17;;;;;;;191.60;47.07;;;7.10;99.90;;;;;;5063207;28;20040;-76
2022/09/29 06:49:43;;;;;;;189.13;44.67;;;7.20;99.90;;;;;;5060469;28;20330;-77
2022/09/29 06:52:09;;;;;;;158.50;39.17;;;7.40;99.90;;;;;;5060536;28;20029;-76
2022/09/29 06:54:34;;;;;;;158.63;41.03;;;7.50;99.90;;;;;;5062171;28;20063;-76
2022/09/29 06:57:04;;;;;;;166.07;42.23;;;7.60;99.90;;;;;;5097242;28;20028;-75
2022/09/29 06:59:32;;;;;;;182.17;44.13;;;7.70;99.90;;;;;;5064177;28;20021;-75
2022/09/29 07:01:58;;;;;;;189.17;44.83;;;7.80;99.90;;;;;;5059350;28;20590;-76
2022/09/29 07:04:24;;;;;;;145.90;43.67;;;7.80;99.90;;;;;;5060796;28;20029;-77
2022/09/29 07:06:50;;;;;;;138.07;40.33;;;7.90;99.90;;;;;;5058789;28;20021;-76
2022/09/29 07:09:16;;;;;;;138.97;41.93;;;8.00;99.90;;;;;;5063349;28;20040;-75
2022/09/29 07:11:46;;;;;;;167.47;43.93;;;8.00;99.90;;;;;;5060926;28;20052;-77
2022/09/29 07:14:13;;;;;;;138.53;38.03;;;8.00;99.90;;;;;;5060562;28;20454;-76
2022/09/29 07:16:38;;;;;;;172.20;42.23;;;8.10;99.90;;;;;;5059574;28;20033;-75
2022/09/29 07:19:04;;;;;;;99.47;35.93;;;8.10;99.90;;;;;;5060070;28;20465;-76
2022/09/29 07:21:30;;;;;;;107.00;37.37;;;8.20;99.90;;;;;;5061616;28;20017;-75
2022/09/29 07:23:55;;;;;;;147.00;41.10;;;8.30;99.90;;;;;;5059329;28;20803;-75
2022/09/29 07:26:21;;;;;;;137.07;41.13;;;8.30;99.90;;;;;;5061317;28;20024;-75
2022/09/29 07:28:47;;;;;;;87.97;35.00;;;8.40;99.90;;;;;;5059585;28;20821;-75
2022/09/29 07:31:15;;;;;;;106.33;39.03;;;8.50;99.90;;;;;;5058930;28;20060;-75
2022/09/29 07:33:45;;;;;;;95.37;39.10;;;8.30;99.90;;;;;;5069458;28;20025;-75
2022/09/29 07:36:11;;;;;;;109.93;40.57;;;8.30;99.90;;;;;;5062933;28;20032;-74
2022/09/29 07:38:37;;;;;;;103.80;40.43;;;8.40;99.90;;;;;;5057477;28;20071;-73
2022/09/29 07:41:05;;;;;;;81.33;33.90;;;8.40;99.90;;;;;;5062694;28;20052;-75
2022/09/29 07:43:31;;;;;;;101.07;38.70;;;8.50;99.90;;;;;;5062574;28;20024;-76
2022/09/29 07:45:58;;;;;;;93.30;37.83;;;8.30;99.90;;;;;;5061279;28;20024;-76
2022/09/29 07:48:24;;;;;;;98.47;40.00;;;8.20;99.90;;;;;;5058909;28;20025;-75
2022/09/29 07:50:51;;;;;;;90.90;38.77;;;8.30;99.90;;;;;;5062435;28;20103;-76
2022/09/29 07:53:17;;;;;;;86.60;37.40;;;8.40;99.90;;;;;;5063572;28;20029;-75
2022/09/29 07:55:42;;;;;;;81.20;38.23;;;8.50;99.90;;;;;;5066142;28;20028;-76
2022/09/29 07:58:09;;;;;;;89.50;38.80;;;8.70;99.90;;;;;;5063969;28;20044;-75
2022/09/29 08:00:34;;;;;;;76.63;38.30;;;8.90;99.90;;;;;;5070846;28;20033;-76
2022/09/29 08:03:06;;;;;;;113.40;41.73;;;9.10;99.90;;;;;;5063150;28;20082;-75
2022/09/29 08:05:32;;;;;;;75.90;37.10;;;9.50;99.90;;;;;;5058440;28;20480;-76
2022/09/29 08:08:03;;;;;;;76.93;38.17;;;9.50;99.90;;;;;;5058867;28;20036;-75
2022/09/29 08:10:32;;;;;;;67.83;34.83;;;9.50;99.90;;;;;;5059012;28;20029;-74
2022/09/29 08:12:58;;;;;;;63.83;35.57;;;9.50;99.90;;;;;;5058024;28;20029;-75
2022/09/29 08:15:25;;;;;;;72.73;35.20;;;9.50;99.90;;;;;;5054041;28;20028;-73
2022/09/29 08:17:54;;;;;;;78.70;37.60;;;9.60;99.90;;;;;;5055458;28;20037;-74
2022/09/29 08:20:21;;;;;;;51.93;32.10;;;9.70;99.90;;;;;;5056811;28;20048;-74
2022/09/29 08:22:49;;;;;;;49.47;30.67;;;9.80;99.90;;;;;;5057875;28;20016;-75
2022/09/29 08:25:18;;;;;;;63.20;33.70;;;9.70;99.90;;;;;;5055837;28;20021;-75
2022/09/29 08:27:44;;;;;;;63.03;33.90;;;9.60;99.90;;;;;;5057804;28;20056;-75
2022/09/29 08:30:10;;;;;;;78.10;41.13;;;9.80;99.90;;;;;;5057807;28;20048;-76
2022/09/29 08:32:37;;;;;;;66.93;36.03;;;10.00;99.90;;;;;;5058211;28;20116;-76
2022/09/29 08:35:04;;;;;;;59.80;32.93;;;10.20;99.90;;;;;;5056590;28;20043;-75
2022/09/29 08:37:30;;;;;;;51.40;30.57;;;10.30;99.90;;;;;;5055638;28;20132;-75
2022/09/29 08:39:56;;;;;;;61.83;35.90;;;10.30;99.90;;;;;;5056553;28;20034;-74
2022/09/29 08:42:43;;;;;;;53.27;31.13;;;10.40;99.90;;;;;;5055179;28;20449;-75
2022/09/29 08:45:13;;;;;;;64.20;34.73;;;10.50;99.90;;;;;;5056912;28;20025;-74
2022/09/29 08:47:46;;;;;;;54.53;32.50;;;10.50;99.90;;;;;;5063899;28;20052;-74
2022/09/29 08:50:36;;;;;;;50.28;31.02;;;10.60;99.90;;;;;;5057086;28;20111;-75
2022/09/29 08:53:11;;;;;;;56.77;34.73;;;10.70;99.90;;;;;;5055815;28;20044;-74
2022/09/29 08:55:51;;;;;;;48.67;30.27;;;10.70;99.90;;;;;;5059463;28;20033;-76
2022/09/29 08:58:18;;;;;;;46.57;26.97;;;10.60;99.90;;;;;;5056628;28;20043;-75
2022/09/29 09:01:23;;;;;;;50.17;31.23;;;10.30;99.90;;;;;;5055851;28;20040;-74
2022/09/29 09:03:58;;;;;;;49.37;31.03;;;10.00;99.90;;;;;;5056034;28;20036;-75
2022/09/29 09:06:41;;;;;;;52.70;33.03;;;9.70;99.90;;;;;;5056708;28;20017;-75
2022/09/29 09:09:31;;;;;;;50.53;32.00;;;9.60;99.90;;;;;;5057162;28;20090;-74
2022/09/29 09:12:39;;;;;;;44.27;29.63;;;9.50;99.90;;;;;;5058165;28;20081;-74
2022/09/29 09:15:37;;;;;;;49.07;28.97;;;9.50;99.90;;;;;;5060966;28;20032;-75
2022/09/29 09:18:17;;;;;;;50.27;30.80;;;9.50;99.90;;;;;;5057134;28;20032;-76
2022/09/29 09:21:00;;;;;;;52.40;32.80;;;9.50;99.90;;;;;;5060633;28;20051;-76
2022/09/29 09:23:55;;;;;;;49.33;30.20;;;9.60;99.90;;;;;;5059762;28;20063;-75
2022/09/29 09:26:29;;;;;;;53.13;33.10;;;9.60;99.90;;;;;;5076303;28;20040;-75
2022/09/29 09:29:03;;;;;;;56.70;31.90;;;9.60;99.90;;;;;;5067373;28;20029;-77
2022/09/29 09:31:39;;;;;;;54.00;31.50;;;9.60;99.90;;;;;;5059875;28;20041;-77
2022/09/29 09:34:09;;;;;;;42.47;28.13;;;9.70;99.90;;;;;;5060570;28;20025;-77
2022/09/29 09:36:41;;;;;;;53.57;33.37;;;9.70;99.90;;;;;;5061569;28;20147;-77
2022/09/29 09:39:24;;;;;;;47.60;30.67;;;9.70;99.90;;;;;;5056092;28;20029;-75
2022/09/29 09:41:53;;;;;;;51.70;32.70;;;9.80;99.90;;;;;;5056553;28;20029;-76
2022/09/29 09:44:28;;;;;;;58.00;35.20;;;10.00;99.90;;;;;;5092942;28;20043;-76
2022/09/29 09:46:53;;;;;;;59.90;35.43;;;10.00;99.90;;;;;;5057581;28;21023;-75
2022/09/29 09:49:25;;;;;;;59.17;35.87;;;10.10;99.90;;;;;;5073891;28;20032;-76
2022/09/29 09:52:11;;;;;;;61.63;35.23;;;10.20;99.90;;;;;;5069297;28;20048;-78
2022/09/29 09:54:56;;;;;;;43.87;28.23;;;10.30;99.90;;;;;;5077338;28;20025;-75
2022/09/29 09:57:46;;;;;;;38.33;25.43;;;10.50;99.90;;;;;;5066157;28;20040;-76
2022/09/29 10:00:18;;;;;;;53.27;29.43;;;10.50;99.90;;;;;;5060677;28;20032;-75
2022/09/29 10:02:50;;;;;;;40.77;24.73;;;10.60;99.90;;;;;;5059822;28;20017;-76
2022/09/29 10:05:22;;;;;;;;;;;10.60;99.90;;;;;;5063983;28;20021;-76
2022/09/29 10:07:49;;;;;;;38.83;24.10;;;10.70;99.90;;;;;;5096414;28;19935;-78
2022/09/29 10:10:27;;;;;;;32.23;19.57;;;10.70;99.90;;;;;;5062653;28;20025;-77
2022/09/29 10:13:02;;;;;;;28.23;18.37;;;10.80;99.90;;;;;;5073460;28;20174;-76
2022/09/29 10:15:37;;;;;;;37.43;23.63;;;10.90;99.90;;;;;;5061141;28;20134;-78
2022/09/29 10:18:11;;;;;;;27.60;20.20;;;11.00;99.90;;;;;;5077000;28;20108;-75
2022/09/29 10:20:40;;;;;;;25.87;16.30;;;11.10;99.90;;;;;;5061545;28;20040;-74
2022/09/29 10:23:25;;;;;;;27.77;17.63;;;11.20;99.90;;;;;;5093942;28;20032;-76
2022/09/29 10:25:52;;;;;;;28.73;18.47;;;11.40;99.90;;;;;;5069508;28;20093;-77
2022/09/29 10:28:18;;;;;;;25.10;17.77;;;11.40;99.90;;;;;;5078458;28;20025;-75
2022/09/29 10:30:44;;;;;;;29.23;16.33;;;11.60;99.90;;;;;;5059823;28;20043;-75
2022/09/29 10:33:16;;;;;;;24.07;14.63;;;11.60;99.90;;;;;;5064214;28;20099;-76
2022/09/29 10:35:44;;;;;;;19.43;11.73;;;11.70;99.90;;;;;;5065085;28;20036;-76
2022/09/29 10:38:24;;;;;;;18.00;12.37;;;11.80;99.90;;;;;;5061193;28;20048;-76
2022/09/29 10:41:08;;;;;;;23.40;14.00;;;12.00;99.90;;;;;;5066501;28;20021;-75
2022/09/29 10:43:40;;;;;;;19.23;12.03;;;12.00;99.90;;;;;;5059986;28;20029;-75
2022/09/29 10:46:26;;;;;;;19.37;11.80;;;12.10;99.90;;;;;;5061037;28;20024;-76
2022/09/29 10:49:17;;;;;;;18.47;12.60;;;12.20;99.90;;;;;;5091366;28;20017;-75
2022/09/29 10:52:05;;;;;;;20.67;12.67;;;12.30;99.90;;;;;;5061357;28;20028;-75
2022/09/29 10:54:53;;;;;;;21.27;12.87;;;12.40;99.90;;;;;;5058969;28;20089;-76
2022/09/29 10:57:24;;;;;;;24.10;12.13;;;12.50;99.90;;;;;;5060638;28;20121;-75
2022/09/29 10:59:52;;;;;;;19.38;12.52;;;12.50;99.90;;;;;;5059275;28;20059;-77
2022/09/29 11:02:31;;;;;;;20.87;13.63;;;12.50;99.90;;;;;;5070665;28;20025;-75
2022/09/29 11:05:01;;;;;;;22.80;13.17;;;12.50;99.90;;;;;;5061994;28;20028;-77
2022/09/29 11:07:27;;;;;;;21.57;11.43;;;12.60;99.90;;;;;;5060769;28;20071;-75
2022/09/29 11:09:54;;;;;;;15.40;9.83;;;12.70;99.90;;;;;;5058777;28;20049;-74
2022/09/29 11:12:38;;;;;;;17.83;9.37;;;13.00;99.90;;;;;;5090846;28;20087;-76
2022/09/29 11:15:24;;;;;;;14.87;9.83;;;13.10;99.90;;;;;;5057986;28;20037;-74
2022/09/29 11:17:51;;;;;;;18.67;9.47;;;13.30;99.90;;;;;;5059753;28;20476;-74
2022/09/29 11:20:17;;;;;;;17.13;10.00;;;13.50;99.90;;;;;;5056554;28;20030;-75
2022/09/29 11:22:52;;;;;;;12.67;8.30;;;13.70;99.90;;;;;;5058677;28;20021;-75
2022/09/29 11:25:45;;;;;;;11.70;6.30;;;13.90;99.90;;;;;;5073451;28;20032;-74
2022/09/29 11:28:19;;;;;;;;;;;14.20;99.90;;;;;;5072667;28;20427;-75
2022/09/29 11:31:08;;;;;;;10.17;4.93;;;14.30;99.90;;;;;;5058086;28;19916;-74
2022/09/29 11:34:11;;;;;;;9.60;4.70;;;14.50;99.90;;;;;;5075338;28;20079;-75
2022/09/29 11:37:12;;;;;;;7.87;4.47;;;14.70;99.90;;;;;;5074587;28;20047;-75
2022/09/29 11:39:56;;;;;;;7.03;5.33;;;14.70;99.90;;;;;;5077415;28;20041;-75
2022/09/29 11:42:34;;;;;;;10.13;5.53;;;14.60;99.90;;;;;;5076095;28;20028;-76
2022/09/29 11:45:06;;;;;;;10.27;5.87;;;14.60;99.90;;;;;;5061952;28;20044;-76
2022/09/29 11:47:54;;;;;;;9.20;5.00;;;14.80;99.90;;;;;;5078433;28;20460;-76
2022/09/29 11:50:50;;;;;;;8.13;4.15;;;15.40;99.90;;;;;;5076411;28;20469;-75
2022/09/29 11:53:30;;;;;;;5.30;3.53;;;15.80;99.90;;;;;;5075290;28;20028;-77
2022/09/29 11:56:30;;;;;;;10.40;5.75;;;15.80;99.90;;;;;;5095485;28;20053;-75
2022/09/29 11:59:02;;;;;;;10.45;5.72;;;15.90;99.90;;;;;;5093823;28;20048;-77
2022/09/29 12:01:51;;;;;;;10.48;6.43;;;15.90;99.90;;;;;;5078637;28;20025;-75
2022/09/29 12:04:39;;;;;;;8.23;4.93;;;16.00;99.90;;;;;;5062620;28;21709;-76
2022/09/29 12:07:35;;;;;;;11.18;4.50;;;16.00;99.90;;;;;;5068200;28;20032;-76
2022/09/29 12:10:03;;;;;;;7.45;4.10;;;16.00;99.90;;;;;;5059021;28;20352;-75
2022/09/29 12:12:41;;;;;;;6.40;3.78;;;15.80;99.90;;;;;;5076497;28;20472;-76
2022/09/29 12:15:40;;;;;;;9.13;4.72;;;15.70;99.90;;;;;;5075332;28;20028;-77
2022/09/29 12:18:28;;;;;;;8.73;5.00;;;15.70;99.90;;;;;;5056483;28;20225;-77
2022/09/29 12:20:56;;;;;;;7.50;4.82;;;16.00;99.90;;;;;;5063591;28;20042;-75
2022/09/29 12:23:25;;;;;;;9.15;3.83;;;16.00;99.90;;;;;;5093684;28;20863;-77
2022/09/29 12:26:11;;;;;;;8.93;3.67;;;15.90;99.90;;;;;;5059639;28;20020;-75
2022/09/29 12:28:42;;;;;;;8.55;4.10;;;15.50;99.90;;;;;;5057140;28;20029;-75
2022/09/29 12:31:18;;;;;;;5.53;3.85;;;15.30;99.90;;;;;;5055082;28;20120;-75
2022/09/29 12:33:49;;;;;;;13.35;5.60;;;15.30;99.90;;;;;;5056424;28;20119;-76
2022/09/29 12:36:42;;;;;;;11.20;6.57;;;15.40;99.90;;;;;;5057506;28;20028;-75
2022/09/29 12:39:40;;;;;;;8.65;3.30;;;15.50;99.90;;;;;;5071092;28;20479;-74
2022/09/29 12:42:15;;;;;;;5.95;2.88;;;15.80;99.90;;;;;;5091950;28;20052;-77
2022/09/29 12:44:47;;;;;;;5.45;2.45;;;15.80;99.90;;;;;;5059661;28;20739;-76
2022/09/29 12:47:27;;;;;;;4.80;2.92;;;15.60;99.90;;;;;;5052131;28;21717;-76
2022/09/29 12:50:02;;;;;;;7.60;3.50;;;15.70;99.90;;;;;;5055885;28;20090;-76
2022/09/29 12:52:54;;;;;;;14.25;4.05;;;15.60;99.90;;;;;;5089780;28;20017;-75
2022/09/29 12:55:34;;;;;;;6.50;3.30;;;15.70;99.90;;;;;;5082675;28;20119;-75
2022/09/29 12:58:04;;;;;;;7.18;3.17;;;16.40;99.90;;;;;;5088339;28;20464;-75
2022/09/29 13:00:33;;;;;;;7.50;3.90;;;16.60;98.00;;;;;;5057281;28;20113;-74
2022/09/29 13:03:08;;;;;;;6.15;2.92;;;16.70;98.80;;;;;;5056546;28;20044;-76